Terminal Aerodrome Forecast
Issued by NWS Topeka, KS

Home | Current Version | Previous Version | Text Only | Print | Product List | Glossary Off
Versions: 1 2 3 4 5 6 7 8 9 10 11 12 13 14 15 16 17 18 19 20 21 22 23 24 25 26 27 28

549
FTUS43 KTOP 161606 AAA
TAFTOP
TAF AMD
KTOP 161606Z 1616/1712 16010KT P6SM VCTS SCT040 BKN080CB
      TEMPO 1701/1705 2SM -TSRA BKN025CB
     FM170500 35010KT P6SM VCSH SCT020 BKN070
     FM170800 34005KT P6SM BKN015=

USA.gov is the U.S. government's official web portal to all federal, state and local government web resources and services.